createdAt,value
2023-01-01T00:01:41.171Z,122.13
2023-01-01T00:04:11.011Z,98.07
2023-01-01T00:06:39.041Z,76.27
2023-01-01T00:09:25.942Z,79.17
2023-01-01T00:11:53.912Z,85.07
2023-01-01T00:14:21.949Z,78.53
2023-01-01T00:16:49.952Z,78.47
2023-01-01T00:19:17.951Z,71.40
2023-01-01T00:21:46.539Z,86.97
2023-01-01T00:24:15.827Z,100.77
2023-01-01T00:26:43.798Z,100.50
2023-01-01T00:29:11.776Z,113.80
2023-01-01T00:31:39.728Z,148.83
2023-01-01T00:34:07.746Z,103.77
2023-01-01T00:36:35.743Z,91.73
2023-01-01T00:39:03.797Z,100.33
2023-01-01T00:41:33.149Z,86.47
2023-01-01T00:44:01.217Z,99.53
2023-01-01T00:46:29.162Z,92.43
2023-01-01T00:48:57.098Z,104.73
2023-01-01T00:51:25.090Z,109.77
2023-01-01T00:53:53.054Z,128.30
2023-01-01T00:56:21.024Z,137.03
2023-01-01T00:59:01.081Z,110.97
2023-01-01T01:01:30.043Z,125.97
2023-01-01T01:03:58.150Z,118.90
2023-01-01T01:06:26.106Z,106.87
2023-01-01T01:08:54.083Z,102.47
2023-01-01T01:11:22.993Z,103.00
2023-01-01T01:13:53.134Z,119.90
2023-01-01T01:16:22.459Z,120.73
2023-01-01T01:18:51.650Z,98.37
2023-01-01T01:21:20.250Z,105.47
2023-01-01T01:23:48.830Z,112.23
2023-01-01T01:26:17.955Z,112.47
2023-01-01T01:28:49.776Z,101.93
2023-01-01T01:31:19.791Z,101.67
2023-01-01T01:33:47.903Z,101.80
2023-01-01T01:36:16.008Z,116.80
2023-01-01T01:38:43.952Z,105.93
2023-01-01T01:41:26.288Z,93.83
2023-01-01T01:43:57.820Z,112.07
2023-01-01T01:46:33.505Z,99.10
2023-01-01T01:49:03.681Z,110.23
2023-01-01T01:51:33.564Z,110.97
2023-01-01T01:54:02.786Z,90.07
2023-01-01T01:56:31.925Z,89.70
2023-01-01T01:59:00.202Z,121.17
2023-01-01T02:01:28.551Z,109.27
2023-01-01T02:03:59.291Z,101.27
2023-01-01T02:06:27.548Z,91.30
2023-01-01T02:08:55.809Z,84.60
2023-01-01T02:11:23.731Z,83.17
2023-01-01T02:13:51.744Z,85.93
2023-01-01T02:16:22.258Z,71.97
2023-01-01T02:18:53.712Z,88.53
2023-01-01T02:21:24.536Z,77.03
2023-01-01T02:23:59.553Z,77.13
2023-01-01T02:26:53.435Z,81.33
2023-01-01T02:29:26.997Z,71.60
2023-01-01T02:31:58.381Z,79.87
2023-01-01T02:34:28.643Z,68.47
2023-01-01T02:36:56.604Z,80.83
2023-01-01T02:39:26.546Z,82.77
2023-01-01T02:41:55.490Z,80.30
2023-01-01T02:44:26.373Z,64.37
2023-01-01T02:46:54.304Z,59.30
2023-01-01T02:49:22.261Z,60.43
2023-01-01T02:51:58.197Z,71.10
2023-01-01T02:54:29.923Z,46.30
2023-01-01T02:57:01.978Z,60.77
2023-01-01T02:59:56.686Z,60.57
2023-01-01T03:02:26.337Z,76.90
2023-01-01T03:05:00.446Z,68.60
2023-01-01T03:07:31.085Z,66.87
2023-01-01T03:10:02.545Z,64.80
2023-01-01T03:12:39.906Z,76.27
2023-01-01T03:15:13.240Z,59.87
2023-01-01T03:17:42.715Z,70.23
2023-01-01T03:20:12.960Z,56.03
2023-01-01T03:25:10.400Z,53.50
2023-01-01T03:27:40.731Z,55.87
2023-01-01T03:30:12.076Z,63.53
2023-01-01T03:32:58.676Z,58.53
2023-01-01T03:35:26.851Z,65.67
2023-01-01T03:37:55.961Z,68.93
2023-01-01T03:40:23.912Z,60.63
2023-01-01T03:42:52.821Z,67.73
2023-01-01T03:45:23.766Z,61.33
2023-01-01T03:47:51.681Z,63.60
2023-01-01T03:50:19.650Z,66.33
2023-01-01T03:52:50.197Z,63.40
2023-01-01T03:55:19.764Z,71.00
2023-01-01T03:57:55.064Z,63.57
2023-01-01T04:00:28.069Z,44.93
2023-01-01T04:02:57.454Z,44.73
2023-01-01T04:05:25.504Z,39.30
2023-01-01T04:07:53.697Z,52.23
2023-01-01T04:10:21.865Z,35.43
2023-01-01T04:12:50.464Z,38.63
2023-01-01T04:15:18.624Z,31.63
2023-01-01T04:17:47.972Z,33.43
2023-01-01T04:20:16.116Z,38.93
2023-01-01T04:22:44.053Z,25.60
2023-01-01T04:25:12.127Z,37.43
2023-01-01T04:27:40.409Z,37.93
2023-01-01T04:30:09.882Z,32.17
2023-01-01T04:32:37.857Z,24.93
2023-01-01T04:35:08.141Z,28.53
2023-01-01T04:37:36.711Z,31.20
2023-01-01T04:40:04.983Z,27.17
2023-01-01T04:42:32.981Z,37.07
2023-01-01T04:45:00.956Z,26.80
2023-01-01T04:47:28.929Z,29.47
2023-01-01T04:49:56.886Z,44.80
2023-01-01T04:52:26.280Z,32.47
2023-01-01T04:54:54.261Z,29.73
2023-01-01T04:57:22.247Z,32.97
2023-01-01T04:59:50.210Z,32.60
2023-01-01T05:02:18.305Z,30.00
2023-01-01T05:04:46.344Z,28.97
2023-01-01T05:07:14.273Z,28.00
2023-01-01T05:09:43.600Z,35.70
2023-01-01T05:12:11.555Z,34.83
2023-01-01T05:14:39.534Z,33.00
2023-01-01T05:17:07.510Z,30.40
2023-01-01T05:19:35.550Z,36.07
2023-01-01T05:22:10.229Z,37.27
2023-01-01T05:24:38.562Z,34.47
2023-01-01T05:27:08.770Z,33.57
2023-01-01T05:29:36.798Z,33.83
2023-01-01T05:32:04.958Z,32.90
2023-01-01T05:36:59.794Z,40.47
2023-01-01T05:39:27.705Z,40.10
2023-01-01T05:41:55.659Z,34.67
2023-01-01T05:44:25.015Z,40.13
2023-01-01T05:46:53.273Z,32.20
2023-01-01T05:49:21.227Z,46.37
2023-01-01T05:51:49.189Z,37.80
2023-01-01T05:56:43.918Z,40.77
2023-01-01T05:59:12.026Z,41.87
2023-01-01T06:01:45.538Z,40.07
2023-01-01T06:04:14.016Z,52.10
2023-01-01T06:06:42.052Z,33.27
2023-01-01T06:09:11.007Z,44.40
2023-01-01T06:11:39.004Z,48.80
2023-01-01T06:14:06.964Z,32.83
2023-01-01T06:16:34.997Z,41.60
2023-01-01T06:19:04.363Z,40.60
2023-01-01T06:21:32.293Z,52.37
2023-01-01T06:24:00.379Z,46.20
2023-01-01T06:26:29.106Z,38.30
2023-01-01T06:28:57.223Z,41.00
2023-01-01T06:31:25.400Z,39.37
2023-01-01T06:33:53.455Z,35.73
2023-01-01T06:36:23.556Z,27.20
2023-01-01T06:38:52.197Z,30.13
2023-01-01T06:41:20.899Z,27.83
2023-01-01T06:43:48.843Z,28.10
2023-01-01T06:46:18.518Z,28.00
2023-01-01T06:48:46.987Z,23.30
2023-01-01T06:51:16.136Z,21.37
2023-01-01T06:53:45.447Z,20.40
2023-01-01T06:56:13.695Z,17.50
2023-01-01T06:58:41.753Z,20.13
2023-01-01T07:01:12.505Z,18.33
2023-01-01T07:03:40.676Z,22.97
2023-01-01T07:06:08.843Z,18.77
2023-01-01T07:08:36.840Z,46.87
2023-01-01T07:11:07.925Z,19.67
2023-01-01T07:13:35.923Z,20.70
2023-01-01T07:16:10.242Z,23.80
2023-01-01T07:18:40.517Z,20.93
2023-01-01T07:21:08.954Z,20.23
2023-01-01T07:23:37.077Z,26.80
2023-01-01T07:26:06.475Z,41.73
2023-01-01T07:28:34.542Z,26.77
2023-01-01T07:31:02.547Z,28.43
2023-01-01T07:33:30.495Z,27.77
2023-01-01T07:35:58.474Z,22.00
2023-01-01T07:38:26.428Z,23.00
2023-01-01T07:40:54.392Z,18.73
2023-01-01T07:43:23.719Z,21.17
2023-01-01T07:45:51.770Z,19.17
2023-01-01T07:48:19.732Z,24.80
2023-01-01T07:50:47.689Z,19.37
2023-01-01T07:53:15.618Z,28.73
2023-01-01T07:55:43.682Z,31.63
2023-01-01T07:58:11.806Z,30.93
2023-01-01T08:00:41.104Z,20.20
2023-01-01T08:03:09.147Z,22.07
2023-01-01T08:05:38.798Z,21.23
2023-01-01T08:08:06.785Z,20.30
2023-01-01T08:10:34.700Z,24.43
2023-01-01T08:13:02.716Z,15.30
2023-01-01T08:15:30.689Z,18.07
2023-01-01T08:18:00.325Z,16.30
2023-01-01T08:20:28.426Z,13.90
2023-01-01T08:23:01.418Z,13.70
2023-01-01T08:25:32.718Z,20.73
2023-01-01T08:28:00.665Z,16.57
2023-01-01T08:30:28.792Z,16.13
2023-01-01T08:32:56.810Z,19.83
2023-01-01T08:35:26.118Z,15.73
2023-01-01T08:37:54.098Z,13.00
2023-01-01T08:40:22.137Z,15.90
2023-01-01T08:42:50.064Z,16.20
2023-01-01T08:45:18.016Z,13.50
2023-01-01T08:47:45.992Z,16.23
2023-01-01T08:50:13.949Z,14.77
2023-01-01T08:52:43.237Z,13.33
2023-01-01T08:55:11.532Z,15.77
2023-01-01T08:57:39.587Z,19.10
2023-01-01T09:00:09.765Z,16.20
2023-01-01T09:02:37.977Z,15.17
2023-01-01T09:05:06.890Z,13.20
2023-01-01T09:07:34.842Z,12.83
2023-01-01T09:10:04.344Z,14.07
2023-01-01T09:12:32.328Z,11.97
2023-01-01T09:15:00.264Z,12.50
2023-01-01T09:17:28.183Z,14.47
2023-01-01T09:19:56.103Z,16.00
2023-01-01T09:22:24.083Z,10.97
2023-01-01T09:24:52.035Z,8.23
2023-01-01T09:27:21.316Z,11.77
2023-01-01T09:29:49.306Z,18.13
2023-01-01T09:32:18.758Z,8.83
2023-01-01T09:34:52.161Z,8.93
2023-01-01T09:37:20.514Z,8.30
2023-01-01T09:39:48.514Z,7.80
2023-01-01T09:42:24.933Z,7.13
2023-01-01T09:44:59.266Z,10.20
2023-01-01T09:47:29.555Z,7.00
2023-01-01T09:49:58.251Z,12.20
2023-01-01T09:52:35.920Z,7.70
2023-01-01T09:55:05.361Z,10.33
2023-01-01T09:57:34.701Z,8.43
2023-01-01T10:00:02.646Z,13.33
2023-01-01T10:02:51.383Z,9.47
2023-01-01T10:05:27.277Z,13.43
2023-01-01T10:07:57.319Z,11.33
2023-01-01T10:10:32.367Z,7.37
2023-01-01T10:13:04.576Z,6.77
2023-01-01T10:15:34.398Z,9.93
2023-01-01T10:18:04.545Z,6.70
2023-01-01T10:20:34.604Z,7.67
2023-01-01T10:23:03.846Z,6.63
2023-01-01T10:25:32.659Z,8.93
2023-01-01T10:28:03.612Z,6.93
2023-01-01T10:30:31.606Z,6.33
2023-01-01T10:32:59.593Z,9.40
2023-01-01T10:35:31.354Z,6.40
2023-01-01T10:37:59.911Z,4.53
2023-01-01T10:40:29.276Z,6.77
2023-01-01T10:42:58.200Z,6.17
2023-01-01T10:45:31.112Z,6.17
2023-01-01T10:48:12.539Z,7.83
2023-01-01T10:50:44.988Z,9.43
2023-01-01T10:53:25.041Z,7.00
2023-01-01T10:55:53.492Z,6.33
2023-01-01T10:58:28.291Z,9.53
2023-01-01T11:01:01.129Z,6.20
2023-01-01T11:03:29.211Z,9.33
2023-01-01T11:06:04.137Z,6.67
2023-01-01T11:08:32.627Z,5.80
2023-01-01T11:11:01.143Z,7.43
2023-01-01T11:13:29.262Z,5.60
2023-01-01T11:15:57.238Z,7.77
2023-01-01T11:18:28.639Z,11.40
2023-01-01T11:20:57.680Z,9.40
2023-01-01T11:23:30.979Z,6.20
2023-01-01T11:26:00.409Z,5.80
2023-01-01T11:28:31.463Z,8.70
2023-01-01T11:31:01.333Z,5.93
2023-01-01T11:33:31.971Z,5.67
2023-01-01T11:35:59.912Z,5.80
2023-01-01T11:38:30.358Z,7.30
2023-01-01T11:41:02.586Z,9.53
2023-01-01T11:43:31.056Z,11.03
2023-01-01T11:45:59.136Z,6.07
2023-01-01T11:48:28.358Z,5.03
2023-01-01T11:50:58.326Z,5.93
2023-01-01T11:53:31.047Z,7.53
2023-01-01T11:56:04.015Z,6.73
2023-01-01T11:58:33.805Z,6.03
2023-01-01T12:01:03.459Z,4.37
2023-01-01T12:03:34.186Z,5.83
2023-01-01T12:06:05.601Z,7.27
2023-01-01T12:08:36.610Z,5.80
2023-01-01T12:11:08.779Z,4.67
2023-01-01T12:13:39.075Z,8.10
2023-01-01T12:16:10.303Z,5.23
2023-01-01T12:18:40.971Z,6.17
2023-01-01T12:21:13.127Z,76.13
2023-01-01T12:23:41.099Z,65.30
2023-01-01T12:26:14.558Z,30.17
2023-01-01T12:28:45.339Z,9.33
2023-01-01T12:31:16.699Z,7.30
2023-01-01T12:33:51.478Z,6.17
2023-01-01T12:36:29.335Z,8.03
2023-01-01T12:39:33.548Z,7.50
2023-01-01T12:42:03.519Z,5.77
2023-01-01T12:44:35.578Z,4.73
2023-01-01T12:47:04.446Z,7.00
2023-01-01T12:49:50.285Z,5.80
2023-01-01T12:52:40.417Z,8.50
2023-01-01T12:55:33.801Z,6.30
2023-01-01T12:58:04.407Z,6.50
2023-01-01T13:00:32.402Z,7.73
2023-01-01T13:03:03.097Z,5.30
2023-01-01T13:05:35.232Z,5.57
2023-01-01T13:08:05.343Z,4.60
2023-01-01T13:10:35.394Z,9.93
2023-01-01T13:13:03.557Z,5.33
2023-01-01T13:15:45.538Z,4.03
2023-01-01T13:18:25.109Z,5.10
2023-01-01T13:20:58.216Z,4.17
2023-01-01T13:23:49.822Z,5.60
2023-01-01T13:26:37.517Z,4.30
2023-01-01T13:29:27.387Z,8.33
2023-01-01T13:32:05.492Z,4.73
2023-01-01T13:34:35.567Z,3.73
2023-01-01T13:37:27.842Z,4.83
2023-01-01T13:39:57.872Z,5.30
2023-01-01T13:42:42.993Z,5.50
2023-01-01T13:45:20.802Z,4.20
2023-01-01T13:48:11.186Z,8.37
2023-01-01T13:50:43.875Z,4.20
2023-01-01T13:53:24.711Z,23.33
2023-01-01T13:56:09.733Z,10.90
2023-01-01T13:58:59.168Z,11.70
2023-01-01T14:01:47.075Z,7.80
2023-01-01T14:04:21.424Z,5.33
2023-01-01T14:06:50.592Z,13.80
2023-01-01T14:09:18.539Z,9.10
2023-01-01T14:11:47.852Z,9.43
2023-01-01T14:14:28.707Z,10.10
2023-01-01T14:16:58.125Z,34.40
2023-01-01T14:19:26.061Z,8.67
2023-01-01T14:21:54.073Z,13.57
2023-01-01T14:24:22.700Z,17.67
2023-01-01T14:26:52.040Z,58.03
2023-01-01T14:29:21.731Z,36.87
2023-01-01T14:31:49.728Z,18.07
2023-01-01T14:34:17.902Z,52.07
2023-01-01T14:36:52.115Z,28.60
2023-01-01T14:39:28.014Z,23.03
2023-01-01T14:41:59.067Z,27.80
2023-01-01T14:44:29.534Z,30.03
2023-01-01T14:46:57.439Z,33.17
2023-01-01T14:49:28.128Z,28.77
2023-01-01T14:51:57.790Z,23.10
2023-01-01T14:54:27.982Z,45.40
2023-01-01T14:56:57.351Z,31.07
2023-01-01T14:59:26.467Z,29.10
2023-01-01T15:02:01.922Z,32.53
2023-01-01T15:04:30.060Z,26.80
2023-01-01T15:06:58.438Z,157.20
2023-01-01T15:09:26.449Z,477.87
2023-01-01T15:11:54.445Z,100.77
2023-01-01T15:14:34.604Z,58.83
2023-01-01T15:17:03.695Z,64.50
2023-01-01T15:19:31.709Z,595.57
2023-01-01T15:21:59.871Z,158.80
2023-01-01T15:24:29.313Z,283.77
2023-01-01T15:26:57.815Z,233.63
2023-01-01T15:29:29.516Z,179.23
2023-01-01T15:32:00.035Z,281.33
2023-01-01T15:34:29.691Z,262.77
2023-01-01T15:36:58.152Z,229.43
2023-01-01T15:39:33.539Z,208.67
2023-01-01T15:42:01.449Z,120.87
2023-01-01T15:44:36.239Z,63.37
2023-01-01T15:47:10.635Z,56.67
2023-01-01T15:49:38.579Z,46.20
2023-01-01T15:52:07.335Z,90.00
2023-01-01T15:54:36.094Z,273.27
2023-01-01T15:57:04.038Z,306.73
2023-01-01T15:59:33.669Z,409.00
2023-01-01T16:02:13.963Z,287.77
2023-01-01T16:04:42.578Z,119.27
2023-01-01T16:07:10.704Z,162.63
2023-01-01T16:09:38.641Z,107.20
2023-01-01T16:12:07.690Z,197.07
2023-01-01T16:14:35.892Z,255.57
2023-01-01T16:17:03.881Z,98.23
2023-01-01T16:19:33.321Z,303.47
2023-01-01T16:22:01.259Z,355.57
2023-01-01T16:24:29.266Z,180.00
2023-01-01T16:26:57.242Z,124.47
2023-01-01T16:29:25.251Z,150.30
2023-01-01T16:31:53.216Z,154.60
2023-01-01T16:34:21.176Z,333.47
2023-01-01T16:36:50.500Z,239.23
2023-01-01T16:39:18.413Z,234.43
2023-01-01T16:41:46.347Z,203.43
2023-01-01T16:44:14.501Z,98.77
2023-01-01T16:46:42.623Z,169.30
2023-01-01T16:49:10.711Z,112.43
2023-01-01T16:51:43.519Z,130.30
2023-01-01T16:54:13.506Z,200.17
2023-01-01T16:56:41.492Z,187.20
2023-01-01T16:59:09.413Z,129.67
2023-01-01T17:01:37.486Z,145.70
2023-01-01T17:04:05.824Z,82.27
2023-01-01T17:06:33.786Z,82.73
2023-01-01T17:09:01.758Z,143.43
2023-01-01T17:11:31.032Z,91.93
2023-01-01T17:13:59.786Z,146.90
2023-01-01T17:16:32.897Z,77.57
2023-01-01T17:19:19.564Z,62.63
2023-01-01T17:21:47.720Z,145.07
2023-01-01T17:24:15.702Z,185.63
2023-01-01T17:26:45.119Z,62.10
2023-01-01T17:29:13.086Z,340.20
2023-01-01T17:31:41.071Z,148.50
2023-01-01T17:34:14.348Z,58.40
2023-01-01T17:36:42.705Z,51.80
2023-01-01T17:39:11.571Z,70.63
2023-01-01T17:41:39.987Z,205.70
2023-01-01T17:44:09.349Z,72.50
2023-01-01T17:46:37.439Z,103.33
2023-01-01T17:49:05.391Z,109.83
2023-01-01T17:51:33.345Z,96.70
2023-01-01T17:54:02.830Z,101.87
2023-01-01T17:56:30.844Z,80.00
2023-01-01T17:58:58.860Z,133.10
2023-01-01T18:01:30.782Z,92.43
2023-01-01T18:03:59.864Z,72.10
2023-01-01T18:06:27.904Z,118.37
2023-01-01T18:08:56.589Z,101.43
2023-01-01T18:11:24.660Z,52.67
2023-01-01T18:13:52.578Z,58.10
2023-01-01T18:16:20.529Z,74.83
2023-01-01T18:18:49.874Z,47.67
2023-01-01T18:21:20.902Z,356.03
2023-01-01T18:23:49.323Z,235.33
2023-01-01T18:26:17.283Z,59.60
2023-01-01T18:28:45.334Z,67.17
2023-01-01T18:31:14.229Z,55.10
2023-01-01T18:33:42.275Z,45.80
2023-01-01T18:36:13.051Z,48.70
2023-01-01T18:38:41.189Z,41.27
2023-01-01T18:41:20.815Z,38.23
2023-01-01T18:43:48.784Z,63.10
2023-01-01T18:46:16.796Z,59.27
2023-01-01T18:48:44.805Z,74.70
2023-01-01T18:51:17.150Z,42.70
2023-01-01T18:53:45.110Z,53.47
2023-01-01T18:56:13.687Z,58.30
2023-01-01T18:58:41.748Z,41.53
2023-01-01T19:01:14.696Z,62.73
2023-01-01T19:03:42.693Z,83.80
2023-01-01T19:06:24.801Z,68.77
2023-01-01T19:08:52.939Z,73.57
2023-01-01T19:11:21.693Z,77.83
2023-01-01T19:13:49.613Z,72.97
2023-01-01T19:16:24.026Z,75.60
2023-01-01T19:18:52.529Z,79.77
2023-01-01T19:21:22.906Z,83.70
2023-01-01T19:23:52.151Z,81.90
2023-01-01T19:26:24.220Z,67.37
2023-01-01T19:28:53.885Z,67.10
2023-01-01T19:31:21.846Z,50.10
2023-01-01T19:33:49.818Z,58.10
2023-01-01T19:36:17.760Z,59.20
2023-01-01T19:38:47.067Z,66.53
2023-01-01T19:41:15.203Z,70.83
2023-01-01T19:43:43.217Z,70.93
2023-01-01T19:46:11.213Z,56.43
2023-01-01T19:48:39.193Z,43.37
2023-01-01T19:51:07.502Z,49.37
2023-01-01T19:53:35.455Z,41.53
2023-01-01T19:56:04.792Z,43.83
2023-01-01T19:58:32.775Z,54.10
2023-01-01T20:01:00.768Z,50.57
2023-01-01T20:03:54.146Z,57.93
2023-01-01T20:06:16.675Z,24.70
2023-01-01T20:08:44.707Z,31.70
2023-01-01T20:11:15.293Z,39.60
2023-01-01T20:13:43.325Z,17.23
2023-01-01T20:16:11.522Z,20.93
2023-01-01T20:18:39.637Z,29.50
2023-01-01T20:21:26.782Z,19.97
2023-01-01T20:23:55.000Z,12.87
2023-01-01T20:26:25.767Z,17.23
2023-01-01T20:29:10.938Z,11.00
2023-01-01T20:31:39.022Z,15.00
2023-01-01T20:34:07.005Z,22.87
2023-01-01T20:36:52.368Z,19.27
2023-01-01T20:39:21.454Z,29.53
2023-01-01T20:41:50.805Z,33.60
2023-01-01T20:44:18.768Z,26.30
2023-01-01T20:46:49.788Z,29.20
2023-01-01T20:49:18.148Z,35.57
2023-01-01T20:51:46.096Z,24.50
2023-01-01T20:54:14.055Z,26.17
2023-01-01T20:56:42.006Z,27.63
2023-01-01T20:59:34.200Z,31.37
2023-01-01T21:02:00.907Z,23.77
2023-01-01T21:04:29.049Z,23.23
2023-01-01T21:06:57.044Z,22.40
2023-01-01T21:09:24.993Z,28.33
2023-01-01T21:11:52.914Z,25.43
2023-01-01T21:14:22.679Z,16.00
2023-01-01T21:16:51.808Z,20.67
2023-01-01T21:19:26.099Z,19.93
2023-01-01T21:21:55.834Z,30.43
2023-01-01T21:24:26.005Z,26.77
2023-01-01T21:26:54.965Z,23.67
2023-01-01T21:29:25.204Z,32.30
2023-01-01T21:31:54.501Z,20.53
2023-01-01T21:34:30.707Z,17.60
2023-01-01T21:37:01.930Z,22.47
2023-01-01T21:39:30.316Z,24.60
2023-01-01T21:42:01.801Z,19.20
2023-01-01T21:44:31.150Z,18.80
2023-01-01T21:47:01.969Z,18.70
2023-01-01T21:49:34.583Z,19.63
2023-01-01T21:52:02.596Z,19.83
2023-01-01T21:54:33.205Z,18.93
2023-01-01T21:57:02.019Z,19.93
2023-01-01T21:59:36.066Z,25.83
2023-01-01T22:02:36.130Z,25.67
2023-01-01T22:05:37.185Z,19.00
2023-01-01T22:08:20.611Z,28.47
2023-01-01T22:10:48.612Z,18.03
2023-01-01T22:13:18.072Z,22.17
2023-01-01T22:15:47.387Z,18.47
2023-01-01T22:18:19.091Z,21.63
2023-01-01T22:20:47.217Z,17.20
2023-01-01T22:23:27.175Z,24.33
2023-01-01T22:25:55.152Z,20.47
2023-01-01T22:28:23.885Z,26.97
2023-01-01T22:30:54.324Z,21.03
2023-01-01T22:33:24.166Z,25.37
2023-01-01T22:35:53.967Z,30.20
2023-01-01T22:38:22.701Z,24.53
2023-01-01T22:40:51.191Z,21.10
2023-01-01T22:43:20.091Z,27.90
2023-01-01T22:45:48.946Z,24.30
2023-01-01T22:48:20.929Z,26.97
2023-01-01T22:50:48.870Z,25.03
2023-01-01T22:53:17.653Z,24.77
2023-01-01T22:55:46.069Z,24.70
2023-01-01T22:58:14.038Z,29.93
2023-01-01T23:00:42.016Z,33.67
2023-01-01T23:03:10.112Z,36.13
2023-01-01T23:05:39.503Z,40.77
2023-01-01T23:08:07.495Z,36.60
2023-01-01T23:10:35.467Z,38.53
2023-01-01T23:13:23.802Z,36.90
2023-01-01T23:16:02.910Z,34.73
2023-01-01T23:18:31.330Z,38.07
2023-01-01T23:21:00.926Z,39.93
2023-01-01T23:23:28.884Z,38.53
2023-01-01T23:25:56.919Z,35.57
2023-01-01T23:28:24.977Z,51.47
2023-01-01T23:30:53.022Z,46.87
2023-01-01T23:33:21.007Z,37.80
2023-01-01T23:35:48.970Z,32.60
2023-01-01T23:38:18.296Z,46.20
2023-01-01T23:40:46.241Z,45.57
2023-01-01T23:43:14.207Z,39.20
2023-01-01T23:45:42.133Z,36.93
2023-01-01T23:48:10.108Z,28.00
2023-01-01T23:50:38.063Z,31.00
2023-01-01T23:53:06.004Z,34.37
2023-01-01T23:55:35.295Z,24.10
2023-01-01T23:58:03.268Z,32.20
